sensor_id;sensor_type;location;lat;lon;timestamp;temperature;humidity
3310;DHT22;1667;53.238;10.394;2023-02-22T00:04:12;11.90;99.90
3310;DHT22;1667;53.238;10.394;2023-02-22T00:09:12;11.90;99.90
3310;DHT22;1667;53.238;10.394;2023-02-22T00:14:16;11.90;99.90
3310;DHT22;1667;53.238;10.394;2023-02-22T00:19:18;11.90;99.90
3310;DHT22;1667;53.238;10.394;2023-02-22T00:24:17;11.90;99.90
3310;DHT22;1667;53.238;10.394;2023-02-22T00:29:20;11.80;99.90
3310;DHT22;1667;53.238;10.394;2023-02-22T00:34:20;11.80;99.90
3310;DHT22;1667;53.238;10.394;2023-02-22T00:39:20;11.80;99.90
3310;DHT22;1667;53.238;10.394;2023-02-22T00:44:18;11.80;99.90
3310;DHT22;1667;53.238;10.394;2023-02-22T00:49:18;11.80;99.90
3310;DHT22;1667;53.238;10.394;2023-02-22T00:54:20;11.80;99.90
3310;DHT22;1667;53.238;10.394;2023-02-22T00:59:18;11.80;99.90
3310;DHT22;1667;53.238;10.394;2023-02-22T01:04:17;11.80;99.90
3310;DHT22;1667;53.238;10.394;2023-02-22T01:09:16;11.80;99.90
3310;DHT22;1667;53.238;10.394;2023-02-22T01:14:17;11.80;99.90
3310;DHT22;1667;53.238;10.394;2023-02-22T01:19:17;11.80;99.90
3310;DHT22;1667;53.238;10.394;2023-02-22T01:24:17;11.80;99.90
3310;DHT22;1667;53.238;10.394;2023-02-22T01:29:18;11.80;99.90
3310;DHT22;1667;53.238;10.394;2023-02-22T01:34:18;11.80;99.90
3310;DHT22;1667;53.238;10.394;2023-02-22T01:39:17;11.80;99.90
3310;DHT22;1667;53.238;10.394;2023-02-22T01:44:26;11.70;99.90
3310;DHT22;1667;53.238;10.394;2023-02-22T01:49:31;11.70;99.90
3310;DHT22;1667;53.238;10.394;2023-02-22T01:54:33;11.70;99.90
3310;DHT22;1667;53.238;10.394;2023-02-22T01:59:36;11.70;99.90
3310;DHT22;1667;53.238;10.394;2023-02-22T02:04:36;11.70;99.90
3310;DHT22;1667;53.238;10.394;2023-02-22T02:09:43;11.70;99.90
3310;DHT22;1667;53.238;10.394;2023-02-22T02:14:43;11.70;99.90
3310;DHT22;1667;53.238;10.394;2023-02-22T02:19:49;11.70;99.90
3310;DHT22;1667;53.238;10.394;2023-02-22T02:25:16;11.70;99.90
3310;DHT22;1667;53.238;10.394;2023-02-22T02:35:58;11.70;99.90
3310;DHT22;1667;53.238;10.394;2023-02-22T02:41:04;11.60;99.90
3310;DHT22;1667;53.238;10.394;2023-02-22T02:46:06;11.70;99.90
3310;DHT22;1667;53.238;10.394;2023-02-22T02:51:09;11.70;99.90
3310;DHT22;1667;53.238;10.394;2023-02-22T02:56:10;11.70;99.90
3310;DHT22;1667;53.238;10.394;2023-02-22T03:01:11;11.60;99.90
3310;DHT22;1667;53.238;10.394;2023-02-22T03:06:31;11.70;99.90
3310;DHT22;1667;53.238;10.394;2023-02-22T03:11:40;11.70;99.90
3310;DHT22;1667;53.238;10.394;2023-02-22T03:16:47;11.70;99.90
3310;DHT22;1667;53.238;10.394;2023-02-22T03:21:55;11.60;99.90
3310;DHT22;1667;53.238;10.394;2023-02-22T03:26:59;11.60;99.90
3310;DHT22;1667;53.238;10.394;2023-02-22T03:32:06;11.70;99.90
3310;DHT22;1667;53.238;10.394;2023-02-22T03:37:11;11.60;99.90
3310;DHT22;1667;53.238;10.394;2023-02-22T03:42:16;11.70;99.90
3310;DHT22;1667;53.238;10.394;2023-02-22T03:47:20;11.60;99.90
3310;DHT22;1667;53.238;10.394;2023-02-22T03:52:23;11.70;99.90
3310;DHT22;1667;53.238;10.394;2023-02-22T03:57:25;11.70;99.90
3310;DHT22;1667;53.238;10.394;2023-02-22T04:02:34;11.60;99.90
3310;DHT22;1667;53.238;10.394;2023-02-22T04:07:34;11.60;99.90
3310;DHT22;1667;53.238;10.394;2023-02-22T04:12:33;11.60;99.90
3310;DHT22;1667;53.238;10.394;2023-02-22T04:17:34;11.60;99.90
3310;DHT22;1667;53.238;10.394;2023-02-22T04:22:35;11.60;99.90
3310;DHT22;1667;53.238;10.394;2023-02-22T04:27:34;11.60;99.90
3310;DHT22;1667;53.238;10.394;2023-02-22T04:32:32;11.60;99.90
3310;DHT22;1667;53.238;10.394;2023-02-22T04:37:32;11.60;99.90
3310;DHT22;1667;53.238;10.394;2023-02-22T04:42:36;11.60;99.90
3310;DHT22;1667;53.238;10.394;2023-02-22T04:47:35;11.60;99.90
3310;DHT22;1667;53.238;10.394;2023-02-22T04:52:35;11.60;99.90
3310;DHT22;1667;53.238;10.394;2023-02-22T04:57:35;11.60;99.90
3310;DHT22;1667;53.238;10.394;2023-02-22T05:02:35;11.60;99.90
3310;DHT22;1667;53.238;10.394;2023-02-22T05:07:35;11.60;99.90
3310;DHT22;1667;53.238;10.394;2023-02-22T05:12:35;11.60;99.90
3310;DHT22;1667;53.238;10.394;2023-02-22T05:17:34;11.60;99.90
3310;DHT22;1667;53.238;10.394;2023-02-22T05:22:33;11.60;99.90
3310;DHT22;1667;53.238;10.394;2023-02-22T05:27:32;11.60;99.90
3310;DHT22;1667;53.238;10.394;2023-02-22T05:32:32;11.50;99.90
3310;DHT22;1667;53.238;10.394;2023-02-22T05:37:31;11.60;99.90
3310;DHT22;1667;53.238;10.394;2023-02-22T05:42:29;11.50;99.90
3310;DHT22;1667;53.238;10.394;2023-02-22T05:47:28;11.60;99.90
3310;DHT22;1667;53.238;10.394;2023-02-22T05:52:28;11.60;99.90
3310;DHT22;1667;53.238;10.394;2023-02-22T05:57:27;11.60;99.90
3310;DHT22;1667;53.238;10.394;2023-02-22T06:02:25;11.60;99.90
3310;DHT22;1667;53.238;10.394;2023-02-22T06:07:24;11.60;99.90
3310;DHT22;1667;53.238;10.394;2023-02-22T06:12:24;11.60;99.90
3310;DHT22;1667;53.238;10.394;2023-02-22T06:17:24;11.60;99.90
3310;DHT22;1667;53.238;10.394;2023-02-22T06:22:22;11.50;99.90
3310;DHT22;1667;53.238;10.394;2023-02-22T06:27:21;11.50;99.90
3310;DHT22;1667;53.238;10.394;2023-02-22T06:32:21;11.50;99.90
3310;DHT22;1667;53.238;10.394;2023-02-22T06:37:20;11.60;99.90
3310;DHT22;1667;53.238;10.394;2023-02-22T06:42:18;11.50;99.90
3310;DHT22;1667;53.238;10.394;2023-02-22T06:47:17;11.50;99.90
3310;DHT22;1667;53.238;10.394;2023-02-22T06:52:17;11.50;99.90
3310;DHT22;1667;53.238;10.394;2023-02-22T06:57:16;11.50;99.90
3310;DHT22;1667;53.238;10.394;2023-02-22T07:02:14;11.50;99.90
3310;DHT22;1667;53.238;10.394;2023-02-22T07:07:13;11.50;99.90
3310;DHT22;1667;53.238;10.394;2023-02-22T07:12:13;11.50;99.90
3310;DHT22;1667;53.238;10.394;2023-02-22T07:17:12;11.50;99.90
3310;DHT22;1667;53.238;10.394;2023-02-22T07:22:11;11.50;99.90
3310;DHT22;1667;53.238;10.394;2023-02-22T07:27:09;11.60;99.90
3310;DHT22;1667;53.238;10.394;2023-02-22T07:32:10;11.50;99.90
3310;DHT22;1667;53.238;10.394;2023-02-22T07:37:08;11.50;99.90
3310;DHT22;1667;53.238;10.394;2023-02-22T07:42:07;11.60;99.90
3310;DHT22;1667;53.238;10.394;2023-02-22T07:47:06;11.60;99.90
3310;DHT22;1667;53.238;10.394;2023-02-22T07:52:10;11.60;99.90
3310;DHT22;1667;53.238;10.394;2023-02-22T07:57:09;11.60;99.90
3310;DHT22;1667;53.238;10.394;2023-02-22T08:02:14;11.60;99.90
3310;DHT22;1667;53.238;10.394;2023-02-22T08:07:14;11.60;99.90
3310;DHT22;1667;53.238;10.394;2023-02-22T08:12:13;11.60;99.90
3310;DHT22;1667;53.238;10.394;2023-02-22T08:17:12;11.60;99.90
3310;DHT22;1667;53.238;10.394;2023-02-22T08:22:10;11.60;99.90
3310;DHT22;1667;53.238;10.394;2023-02-22T08:27:10;11.60;99.90
3310;DHT22;1667;53.238;10.394;2023-02-22T08:32:09;11.60;99.90
3310;DHT22;1667;53.238;10.394;2023-02-22T08:37:08;11.70;99.90
3310;DHT22;1667;53.238;10.394;2023-02-22T08:42:06;11.70;99.90
3310;DHT22;1667;53.238;10.394;2023-02-22T08:47:08;11.80;99.90
3310;DHT22;1667;53.238;10.394;2023-02-22T08:52:06;11.80;99.90
3310;DHT22;1667;53.238;10.394;2023-02-22T08:57:05;11.80;99.90
3310;DHT22;1667;53.238;10.394;2023-02-22T09:02:04;11.90;99.90
3310;DHT22;1667;53.238;10.394;2023-02-22T09:07:04;11.90;99.90
3310;DHT22;1667;53.238;10.394;2023-02-22T09:12:03;11.90;99.90
3310;DHT22;1667;53.238;10.394;2023-02-22T09:17:03;11.90;99.90
3310;DHT22;1667;53.238;10.394;2023-02-22T09:22:03;11.90;99.90
3310;DHT22;1667;53.238;10.394;2023-02-22T09:27:02;11.90;99.90
3310;DHT22;1667;53.238;10.394;2023-02-22T09:32:04;12.00;99.90
3310;DHT22;1667;53.238;10.394;2023-02-22T09:37:04;12.00;99.90
3310;DHT22;1667;53.238;10.394;2023-02-22T09:42:10;12.10;99.90
3310;DHT22;1667;53.238;10.394;2023-02-22T09:47:14;12.10;99.90
3310;DHT22;1667;53.238;10.394;2023-02-22T09:52:17;12.20;99.90
3310;DHT22;1667;53.238;10.394;2023-02-22T09:57:22;12.20;99.90
3310;DHT22;1667;53.238;10.394;2023-02-22T10:02:27;12.30;99.90
3310;DHT22;1667;53.238;10.394;2023-02-22T10:07:32;12.40;99.90
3310;DHT22;1667;53.238;10.394;2023-02-22T10:12:43;12.50;99.90
3310;DHT22;1667;53.238;10.394;2023-02-22T10:17:51;12.50;99.90
3310;DHT22;1667;53.238;10.394;2023-02-22T10:23:02;12.50;99.90
3310;DHT22;1667;53.238;10.394;2023-02-22T10:28:08;12.60;99.90
3310;DHT22;1667;53.238;10.394;2023-02-22T10:33:12;12.70;99.90
3310;DHT22;1667;53.238;10.394;2023-02-22T10:38:17;12.80;99.90
3310;DHT22;1667;53.238;10.394;2023-02-22T10:43:16;12.90;99.90
3310;DHT22;1667;53.238;10.394;2023-02-22T10:48:16;13.00;99.90
3310;DHT22;1667;53.238;10.394;2023-02-22T10:53:17;13.10;99.90
3310;DHT22;1667;53.238;10.394;2023-02-22T10:58:16;13.20;99.90
3310;DHT22;1667;53.238;10.394;2023-02-22T11:03:17;13.30;99.90
3310;DHT22;1667;53.238;10.394;2023-02-22T11:08:26;13.30;99.90
3310;DHT22;1667;53.238;10.394;2023-02-22T11:13:27;13.40;99.90
3310;DHT22;1667;53.238;10.394;2023-02-22T11:18:28;13.50;99.90
3310;DHT22;1667;53.238;10.394;2023-02-22T11:23:28;13.60;99.90
3310;DHT22;1667;53.238;10.394;2023-02-22T11:28:29;13.70;99.90
3310;DHT22;1667;53.238;10.394;2023-02-22T11:33:30;13.80;99.90
3310;DHT22;1667;53.238;10.394;2023-02-22T11:38:30;13.80;99.90
3310;DHT22;1667;53.238;10.394;2023-02-22T11:43:29;14.00;99.90
3310;DHT22;1667;53.238;10.394;2023-02-22T11:48:31;14.00;99.90
3310;DHT22;1667;53.238;10.394;2023-02-22T11:53:50;14.10;99.90
3310;DHT22;1667;53.238;10.394;2023-02-22T11:58:58;14.10;99.90
3310;DHT22;1667;53.238;10.394;2023-02-22T12:09:49;14.10;99.90
3310;DHT22;1667;53.238;10.394;2023-02-22T12:14:56;14.10;99.90
3310;DHT22;1667;53.238;10.394;2023-02-22T12:20:02;14.10;99.90
3310;DHT22;1667;53.238;10.394;2023-02-22T12:25:17;14.10;99.90
3310;DHT22;1667;53.238;10.394;2023-02-22T12:30:19;14.20;99.90
3310;DHT22;1667;53.238;10.394;2023-02-22T12:35:23;14.10;99.90
3310;DHT22;1667;53.238;10.394;2023-02-22T12:40:30;14.20;99.90
3310;DHT22;1667;53.238;10.394;2023-02-22T12:45:37;14.30;99.90
3310;DHT22;1667;53.238;10.394;2023-02-22T12:50:37;14.30;99.90
3310;DHT22;1667;53.238;10.394;2023-02-22T12:55:40;14.40;99.90
3310;DHT22;1667;53.238;10.394;2023-02-22T13:00:46;14.50;99.90
3310;DHT22;1667;53.238;10.394;2023-02-22T13:05:50;14.50;99.90
3310;DHT22;1667;53.238;10.394;2023-02-22T13:11:02;14.50;99.90
3310;DHT22;1667;53.238;10.394;2023-02-22T13:16:09;14.50;99.90
3310;DHT22;1667;53.238;10.394;2023-02-22T13:21:17;14.50;99.90
3310;DHT22;1667;53.238;10.394;2023-02-22T13:26:23;14.50;99.90
3310;DHT22;1667;53.238;10.394;2023-02-22T13:31:44;14.50;99.90
3310;DHT22;1667;53.238;10.394;2023-02-22T13:36:59;14.60;99.90
3310;DHT22;1667;53.238;10.394;2023-02-22T13:42:21;14.70;99.90
3310;DHT22;1667;53.238;10.394;2023-02-22T13:47:49;14.70;99.90
3310;DHT22;1667;53.238;10.394;2023-02-22T13:52:50;14.70;99.90
3310;DHT22;1667;53.238;10.394;2023-02-22T13:57:59;14.70;99.90
3310;DHT22;1667;53.238;10.394;2023-02-22T14:03:02;14.70;99.90
3310;DHT22;1667;53.238;10.394;2023-02-22T14:08:03;14.70;99.90
3310;DHT22;1667;53.238;10.394;2023-02-22T14:13:06;14.70;99.90
3310;DHT22;1667;53.238;10.394;2023-02-22T14:18:12;14.70;99.90
3310;DHT22;1667;53.238;10.394;2023-02-22T14:23:27;14.60;99.90
3310;DHT22;1667;53.238;10.394;2023-02-22T14:28:39;14.70;99.90
3310;DHT22;1667;53.238;10.394;2023-02-22T14:34:00;14.60;99.90
3310;DHT22;1667;53.238;10.394;2023-02-22T14:39:15;14.60;99.90
3310;DHT22;1667;53.238;10.394;2023-02-22T14:44:20;14.60;99.90
3310;DHT22;1667;53.238;10.394;2023-02-22T14:49:22;14.60;99.90
3310;DHT22;1667;53.238;10.394;2023-02-22T14:54:27;14.60;99.90
3310;DHT22;1667;53.238;10.394;2023-02-22T14:59:29;14.60;99.90
3310;DHT22;1667;53.238;10.394;2023-02-22T15:04:30;14.50;99.90
3310;DHT22;1667;53.238;10.394;2023-02-22T15:09:30;14.50;99.90
3310;DHT22;1667;53.238;10.394;2023-02-22T15:14:36;14.40;99.90
3310;DHT22;1667;53.238;10.394;2023-02-22T15:19:39;14.40;99.90
3310;DHT22;1667;53.238;10.394;2023-02-22T15:24:39;14.40;99.90
3310;DHT22;1667;53.238;10.394;2023-02-22T15:29:41;14.40;99.90
3310;DHT22;1667;53.238;10.394;2023-02-22T15:34:40;14.30;99.90
3310;DHT22;1667;53.238;10.394;2023-02-22T15:39:39;14.30;99.90
3310;DHT22;1667;53.238;10.394;2023-02-22T15:44:42;14.30;99.90
3310;DHT22;1667;53.238;10.394;2023-02-22T15:49:41;14.20;99.90
3310;DHT22;1667;53.238;10.394;2023-02-22T15:54:43;14.20;99.90
3310;DHT22;1667;53.238;10.394;2023-02-22T15:59:47;14.10;99.90
3310;DHT22;1667;53.238;10.394;2023-02-22T16:04:57;14.10;99.90
3310;DHT22;1667;53.238;10.394;2023-02-22T16:09:56;14.00;99.90
3310;DHT22;1667;53.238;10.394;2023-02-22T16:14:57;14.00;99.90
3310;DHT22;1667;53.238;10.394;2023-02-22T16:19:57;13.90;99.90
3310;DHT22;1667;53.238;10.394;2023-02-22T16:25:13;13.80;99.90
3310;DHT22;1667;53.238;10.394;2023-02-22T16:30:24;13.70;99.90
3310;DHT22;1667;53.238;10.394;2023-02-22T16:35:24;13.50;99.90
3310;DHT22;1667;53.238;10.394;2023-02-22T16:40:27;13.50;99.90
3310;DHT22;1667;53.238;10.394;2023-02-22T16:45:30;13.50;99.90
3310;DHT22;1667;53.238;10.394;2023-02-22T16:50:28;13.40;99.90
3310;DHT22;1667;53.238;10.394;2023-02-22T16:55:26;13.40;99.90
3310;DHT22;1667;53.238;10.394;2023-02-22T17:00:25;13.30;99.90
3310;DHT22;1667;53.238;10.394;2023-02-22T17:05:30;13.30;99.90
3310;DHT22;1667;53.238;10.394;2023-02-22T17:10:33;13.30;99.90
3310;DHT22;1667;53.238;10.394;2023-02-22T17:15:33;13.20;99.90
3310;DHT22;1667;53.238;10.394;2023-02-22T17:20:33;13.20;99.90
3310;DHT22;1667;53.238;10.394;2023-02-22T17:25:35;13.10;99.90
3310;DHT22;1667;53.238;10.394;2023-02-22T17:30:34;13.10;99.90
3310;DHT22;1667;53.238;10.394;2023-02-22T17:35:37;13.00;99.90
3310;DHT22;1667;53.238;10.394;2023-02-22T17:40:38;13.00;99.90
3310;DHT22;1667;53.238;10.394;2023-02-22T17:45:37;12.90;99.90
3310;DHT22;1667;53.238;10.394;2023-02-22T17:50:39;12.90;99.90
3310;DHT22;1667;53.238;10.394;2023-02-22T17:55:40;12.90;99.90
3310;DHT22;1667;53.238;10.394;2023-02-22T18:00:42;12.80;99.90
3310;DHT22;1667;53.238;10.394;2023-02-22T18:05:45;12.70;99.90
3310;DHT22;1667;53.238;10.394;2023-02-22T18:10:45;12.70;99.90
3310;DHT22;1667;53.238;10.394;2023-02-22T18:15:44;12.70;99.90
3310;DHT22;1667;53.238;10.394;2023-02-22T18:20:45;12.80;99.90
3310;DHT22;1667;53.238;10.394;2023-02-22T18:25:49;12.70;99.90
3310;DHT22;1667;53.238;10.394;2023-02-22T18:31:07;12.70;99.90
3310;DHT22;1667;53.238;10.394;2023-02-22T18:36:08;12.70;99.90
3310;DHT22;1667;53.238;10.394;2023-02-22T18:41:09;12.70;99.90
3310;DHT22;1667;53.238;10.394;2023-02-22T18:46:10;12.70;99.90
3310;DHT22;1667;53.238;10.394;2023-02-22T18:51:44;12.70;99.90
3310;DHT22;1667;53.238;10.394;2023-02-22T18:56:43;12.70;99.90
3310;DHT22;1667;53.238;10.394;2023-02-22T19:01:42;12.70;99.90
3310;DHT22;1667;53.238;10.394;2023-02-22T19:06:46;12.60;99.90
3310;DHT22;1667;53.238;10.394;2023-02-22T19:11:46;12.60;99.90
3310;DHT22;1667;53.238;10.394;2023-02-22T19:16:48;12.60;99.90
3310;DHT22;1667;53.238;10.394;2023-02-22T19:21:48;12.60;99.90
3310;DHT22;1667;53.238;10.394;2023-02-22T19:26:47;12.50;99.90
3310;DHT22;1667;53.238;10.394;2023-02-22T19:31:47;12.50;99.90
3310;DHT22;1667;53.238;10.394;2023-02-22T19:36:49;12.50;99.90
3310;DHT22;1667;53.238;10.394;2023-02-22T19:41:47;12.50;99.90
3310;DHT22;1667;53.238;10.394;2023-02-22T19:46:47;12.50;99.90
3310;DHT22;1667;53.238;10.394;2023-02-22T19:51:45;12.40;99.90
3310;DHT22;1667;53.238;10.394;2023-02-22T19:56:46;12.40;99.90
3310;DHT22;1667;53.238;10.394;2023-02-22T20:01:47;12.30;99.90
3310;DHT22;1667;53.238;10.394;2023-02-22T20:06:47;12.30;99.90
3310;DHT22;1667;53.238;10.394;2023-02-22T20:11:49;12.30;99.90
3310;DHT22;1667;53.238;10.394;2023-02-22T20:16:48;12.20;99.90
3310;DHT22;1667;53.238;10.394;2023-02-22T20:21:48;12.20;99.90
3310;DHT22;1667;53.238;10.394;2023-02-22T20:26:50;12.20;99.90
3310;DHT22;1667;53.238;10.394;2023-02-22T20:31:51;12.20;99.90
3310;DHT22;1667;53.238;10.394;2023-02-22T20:36:52;12.20;99.90
3310;DHT22;1667;53.238;10.394;2023-02-22T20:41:52;12.20;99.90
3310;DHT22;1667;53.238;10.394;2023-02-22T20:46:51;12.20;99.90
3310;DHT22;1667;53.238;10.394;2023-02-22T20:51:50;12.20;99.90
3310;DHT22;1667;53.238;10.394;2023-02-22T20:56:48;12.20;99.90
3310;DHT22;1667;53.238;10.394;2023-02-22T21:01:50;12.20;99.90
3310;DHT22;1667;53.238;10.394;2023-02-22T21:06:49;12.20;99.90
3310;DHT22;1667;53.238;10.394;2023-02-22T21:11:48;12.20;99.90
3310;DHT22;1667;53.238;10.394;2023-02-22T21:16:48;12.30;99.90
3310;DHT22;1667;53.238;10.394;2023-02-22T21:21:48;12.20;99.90
3310;DHT22;1667;53.238;10.394;2023-02-22T21:26:47;12.30;99.90
3310;DHT22;1667;53.238;10.394;2023-02-22T21:31:46;12.20;99.90
3310;DHT22;1667;53.238;10.394;2023-02-22T21:36:45;12.20;99.90
3310;DHT22;1667;53.238;10.394;2023-02-22T21:41:46;12.20;99.90
3310;DHT22;1667;53.238;10.394;2023-02-22T21:46:46;12.10;99.90
3310;DHT22;1667;53.238;10.394;2023-02-22T21:51:46;12.10;99.90
3310;DHT22;1667;53.238;10.394;2023-02-22T21:56:46;12.10;99.90
3310;DHT22;1667;53.238;10.394;2023-02-22T22:01:47;12.10;99.90
3310;DHT22;1667;53.238;10.394;2023-02-22T22:06:47;12.10;99.90
3310;DHT22;1667;53.238;10.394;2023-02-22T22:11:50;12.10;99.90
3310;DHT22;1667;53.238;10.394;2023-02-22T22:16:51;12.10;99.90
3310;DHT22;1667;53.238;10.394;2023-02-22T22:21:49;12.10;99.90
3310;DHT22;1667;53.238;10.394;2023-02-22T22:26:51;12.10;99.90
3310;DHT22;1667;53.238;10.394;2023-02-22T22:31:51;12.10;99.90
3310;DHT22;1667;53.238;10.394;2023-02-22T22:36:49;12.10;99.90
3310;DHT22;1667;53.238;10.394;2023-02-22T22:41:48;12.00;99.90
3310;DHT22;1667;53.238;10.394;2023-02-22T22:46:49;12.00;99.90
3310;DHT22;1667;53.238;10.394;2023-02-22T22:51:49;12.00;99.90
3310;DHT22;1667;53.238;10.394;2023-02-22T22:56:48;12.00;99.90
3310;DHT22;1667;53.238;10.394;2023-02-22T23:01:48;12.00;99.90
3310;DHT22;1667;53.238;10.394;2023-02-22T23:06:50;12.00;99.90
3310;DHT22;1667;53.238;10.394;2023-02-22T23:11:50;12.00;99.90
3310;DHT22;1667;53.238;10.394;2023-02-22T23:16:52;11.90;99.90
3310;DHT22;1667;53.238;10.394;2023-02-22T23:21:55;11.90;99.90
3310;DHT22;1667;53.238;10.394;2023-02-22T23:26:55;11.90;99.90
3310;DHT22;1667;53.238;10.394;2023-02-22T23:31:59;11.80;99.90
3310;DHT22;1667;53.238;10.394;2023-02-22T23:36:57;11.80;99.90
3310;DHT22;1667;53.238;10.394;2023-02-22T23:41:57;11.90;99.90
3310;DHT22;1667;53.238;10.394;2023-02-22T23:47:00;11.80;99.90
3310;DHT22;1667;53.238;10.394;2023-02-22T23:51:59;11.80;99.90
3310;DHT22;1667;53.238;10.394;2023-02-22T23:56:58;11.80;99.90
